sensor_id;sensor_type;location;lat;lon;timestamp;temperature;humidity
80931;DHT22;70388;42.698;23.324;2023-06-22T14:18:27;26.00;55.00
80931;DHT22;70388;42.698;23.324;2023-06-22T14:20:52;25.50;55.90
80931;DHT22;70388;42.698;23.324;2023-06-22T14:23:18;25.50;56.10
80931;DHT22;70388;42.698;23.324;2023-06-22T14:25:44;25.70;55.70
80931;DHT22;70388;42.698;23.324;2023-06-22T14:28:09;26.00;55.90
80931;DHT22;70388;42.698;23.324;2023-06-22T14:30:35;26.10;54.00
80931;DHT22;70388;42.698;23.324;2023-06-22T14:33:01;26.30;54.60
80931;DHT22;70388;42.698;23.324;2023-06-22T14:35:26;26.60;53.00
80931;DHT22;70388;42.698;23.324;2023-06-22T14:37:52;26.70;52.40
80931;DHT22;70388;42.698;23.324;2023-06-22T14:40:18;26.90;52.40
80931;DHT22;70388;42.698;23.324;2023-06-22T14:42:43;27.00;52.30
80931;DHT22;70388;42.698;23.324;2023-06-22T14:45:09;27.20;52.10
80931;DHT22;70388;42.698;23.324;2023-06-22T14:47:35;27.20;52.10
80931;DHT22;70388;42.698;23.324;2023-06-22T14:50:00;27.20;52.00
80931;DHT22;70388;42.698;23.324;2023-06-22T14:52:26;27.30;51.90
80931;DHT22;70388;42.698;23.324;2023-06-22T14:54:53;27.40;51.70
80931;DHT22;70388;42.698;23.324;2023-06-22T14:57:19;27.60;51.60
80931;DHT22;70388;42.698;23.324;2023-06-22T14:59:49;27.70;51.60
80931;DHT22;70388;42.698;23.324;2023-06-22T15:02:15;27.70;51.80
80931;DHT22;70388;42.698;23.324;2023-06-22T15:04:41;27.60;52.30
80931;DHT22;70388;42.698;23.324;2023-06-22T15:07:07;27.50;52.50
80931;DHT22;70388;42.698;23.324;2023-06-22T15:09:32;27.50;52.40
80931;DHT22;70388;42.698;23.324;2023-06-22T15:11:59;27.50;52.60
80931;DHT22;70388;42.698;23.324;2023-06-22T15:14:27;27.50;52.40
80931;DHT22;70388;42.698;23.324;2023-06-22T15:16:53;27.30;52.70
80931;DHT22;70388;42.698;23.324;2023-06-22T15:19:18;27.40;52.50
80931;DHT22;70388;42.698;23.324;2023-06-22T15:21:44;27.40;52.40
80931;DHT22;70388;42.698;23.324;2023-06-22T15:24:11;27.40;51.90
80931;DHT22;70388;42.698;23.324;2023-06-22T15:26:36;27.50;51.60
80931;DHT22;70388;42.698;23.324;2023-06-22T15:29:03;27.50;51.30
80931;DHT22;70388;42.698;23.324;2023-06-22T15:31:29;27.50;51.00
80931;DHT22;70388;42.698;23.324;2023-06-22T15:33:54;27.40;51.00
80931;DHT22;70388;42.698;23.324;2023-06-22T15:36:20;27.50;50.80
80931;DHT22;70388;42.698;23.324;2023-06-22T15:38:46;27.60;50.60
80931;DHT22;70388;42.698;23.324;2023-06-22T15:41:12;27.70;51.00
80931;DHT22;70388;42.698;23.324;2023-06-22T15:43:38;27.60;50.50
80931;DHT22;70388;42.698;23.324;2023-06-22T15:46:04;27.60;50.40
80931;DHT22;70388;42.698;23.324;2023-06-22T15:48:29;27.60;48.80
80931;DHT22;70388;42.698;23.324;2023-06-22T15:50:55;27.50;48.60
80931;DHT22;70388;42.698;23.324;2023-06-22T15:53:20;27.40;48.70
80931;DHT22;70388;42.698;23.324;2023-06-22T15:55:46;27.20;48.50
80931;DHT22;70388;42.698;23.324;2023-06-22T15:58:12;27.00;48.90
80931;DHT22;70388;42.698;23.324;2023-06-22T16:00:38;26.90;49.70
80931;DHT22;70388;42.698;23.324;2023-06-22T16:03:04;26.80;51.50
80931;DHT22;70388;42.698;23.324;2023-06-22T16:05:30;26.70;53.10
80931;DHT22;70388;42.698;23.324;2023-06-22T16:07:56;26.50;54.10
80931;DHT22;70388;42.698;23.324;2023-06-22T16:10:22;26.40;54.50
80931;DHT22;70388;42.698;23.324;2023-06-22T16:12:48;26.30;55.10
80931;DHT22;70388;42.698;23.324;2023-06-22T16:15:15;26.20;55.10
80931;DHT22;70388;42.698;23.324;2023-06-22T16:17:41;26.10;55.00
80931;DHT22;70388;42.698;23.324;2023-06-22T16:20:08;26.20;54.30
80931;DHT22;70388;42.698;23.324;2023-06-22T16:22:35;26.10;54.50
80931;DHT22;70388;42.698;23.324;2023-06-22T16:25:01;26.10;54.00
80931;DHT22;70388;42.698;23.324;2023-06-22T16:27:31;26.20;53.40
80931;DHT22;70388;42.698;23.324;2023-06-22T16:29:57;26.20;53.60
80931;DHT22;70388;42.698;23.324;2023-06-22T16:32:23;26.20;53.70
80931;DHT22;70388;42.698;23.324;2023-06-22T16:34:49;26.30;53.10
80931;DHT22;70388;42.698;23.324;2023-06-22T16:37:15;26.30;53.10
80931;DHT22;70388;42.698;23.324;2023-06-22T16:39:40;26.40;53.20
80931;DHT22;70388;42.698;23.324;2023-06-22T16:42:06;26.40;53.50
80931;DHT22;70388;42.698;23.324;2023-06-22T16:44:32;26.30;53.50
80931;DHT22;70388;42.698;23.324;2023-06-22T16:46:58;26.30;53.50
80931;DHT22;70388;42.698;23.324;2023-06-22T16:49:25;26.30;53.60
80931;DHT22;70388;42.698;23.324;2023-06-22T16:51:51;26.20;53.60
80931;DHT22;70388;42.698;23.324;2023-06-22T16:54:16;26.20;53.80
80931;DHT22;70388;42.698;23.324;2023-06-22T16:56:43;26.20;53.50
80931;DHT22;70388;42.698;23.324;2023-06-22T16:59:09;26.30;53.50
80931;DHT22;70388;42.698;23.324;2023-06-22T17:01:35;26.20;53.40
80931;DHT22;70388;42.698;23.324;2023-06-22T17:04:07;26.20;53.60
80931;DHT22;70388;42.698;23.324;2023-06-22T17:06:35;26.20;53.70
80931;DHT22;70388;42.698;23.324;2023-06-22T17:09:02;26.10;53.90
80931;DHT22;70388;42.698;23.324;2023-06-22T17:11:29;26.10;54.10
80931;DHT22;70388;42.698;23.324;2023-06-22T17:14:00;26.10;54.00
80931;DHT22;70388;42.698;23.324;2023-06-22T17:16:29;26.20;54.10
80931;DHT22;70388;42.698;23.324;2023-06-22T17:18:57;26.10;54.20
80931;DHT22;70388;42.698;23.324;2023-06-22T17:21:24;26.10;55.10
80931;DHT22;70388;42.698;23.324;2023-06-22T17:23:50;26.10;55.00
80931;DHT22;70388;42.698;23.324;2023-06-22T17:26:16;26.10;55.00
80931;DHT22;70388;42.698;23.324;2023-06-22T17:28:49;26.10;55.10
80931;DHT22;70388;42.698;23.324;2023-06-22T17:31:15;26.10;55.10
80931;DHT22;70388;42.698;23.324;2023-06-22T17:33:41;26.10;55.30
80931;DHT22;70388;42.698;23.324;2023-06-22T17:36:11;26.10;55.40
80931;DHT22;70388;42.698;23.324;2023-06-22T17:38:39;26.10;55.50
80931;DHT22;70388;42.698;23.324;2023-06-22T17:41:05;26.00;56.40
80931;DHT22;70388;42.698;23.324;2023-06-22T17:43:31;25.90;57.40
80931;DHT22;70388;42.698;23.324;2023-06-22T17:45:58;25.70;58.10
80931;DHT22;70388;42.698;23.324;2023-06-22T17:48:25;25.70;58.90
80931;DHT22;70388;42.698;23.324;2023-06-22T17:50:51;25.70;59.70
80931;DHT22;70388;42.698;23.324;2023-06-22T17:53:17;25.50;60.60
80931;DHT22;70388;42.698;23.324;2023-06-22T17:55:43;25.50;60.90
80931;DHT22;70388;42.698;23.324;2023-06-22T17:58:09;25.50;61.20
80931;DHT22;70388;42.698;23.324;2023-06-22T18:00:35;25.40;61.60
80931;DHT22;70388;42.698;23.324;2023-06-22T18:03:04;25.40;61.90
80931;DHT22;70388;42.698;23.324;2023-06-22T18:05:31;25.50;62.00
80931;DHT22;70388;42.698;23.324;2023-06-22T18:07:58;25.30;62.40
80931;DHT22;70388;42.698;23.324;2023-06-22T18:10:27;25.20;63.00
80931;DHT22;70388;42.698;23.324;2023-06-22T18:12:57;25.30;63.20
80931;DHT22;70388;42.698;23.324;2023-06-22T18:15:23;25.30;63.40
80931;DHT22;70388;42.698;23.324;2023-06-22T18:17:51;25.30;63.40
80931;DHT22;70388;42.698;23.324;2023-06-22T18:20:17;25.20;63.30
80931;DHT22;70388;42.698;23.324;2023-06-22T18:22:46;25.30;63.20
80931;DHT22;70388;42.698;23.324;2023-06-22T18:25:12;25.30;62.90
80931;DHT22;70388;42.698;23.324;2023-06-22T18:27:38;25.30;63.00
80931;DHT22;70388;42.698;23.324;2023-06-22T18:30:06;25.30;63.10
80931;DHT22;70388;42.698;23.324;2023-06-22T18:32:32;25.30;63.20
80931;DHT22;70388;42.698;23.324;2023-06-22T18:34:58;25.30;63.40
80931;DHT22;70388;42.698;23.324;2023-06-22T18:37:25;25.20;63.50
80931;DHT22;70388;42.698;23.324;2023-06-22T18:39:55;25.20;63.60
80931;DHT22;70388;42.698;23.324;2023-06-22T18:42:22;25.30;63.70
80931;DHT22;70388;42.698;23.324;2023-06-22T18:44:52;25.30;63.50
80931;DHT22;70388;42.698;23.324;2023-06-22T18:47:26;25.30;63.50
80931;DHT22;70388;42.698;23.324;2023-06-22T18:49:53;25.20;63.70
80931;DHT22;70388;42.698;23.324;2023-06-22T18:52:25;25.10;63.80
80931;DHT22;70388;42.698;23.324;2023-06-22T18:54:52;25.00;63.80
80931;DHT22;70388;42.698;23.324;2023-06-22T18:57:29;24.90;64.20
80931;DHT22;70388;42.698;23.324;2023-06-22T19:02:33;24.80;64.70
80931;DHT22;70388;42.698;23.324;2023-06-22T19:05:14;24.80;64.80
80931;DHT22;70388;42.698;23.324;2023-06-22T19:10:28;24.70;65.10
80931;DHT22;70388;42.698;23.324;2023-06-22T19:15:40;24.50;66.00
80931;DHT22;70388;42.698;23.324;2023-06-22T19:18:19;24.40;66.80
80931;DHT22;70388;42.698;23.324;2023-06-22T19:20:51;24.20;68.30
80931;DHT22;70388;42.698;23.324;2023-06-22T19:25:53;23.90;69.70
80931;DHT22;70388;42.698;23.324;2023-06-22T19:28:26;23.90;69.40
80931;DHT22;70388;42.698;23.324;2023-06-22T19:30:59;24.00;69.00
80931;DHT22;70388;42.698;23.324;2023-06-22T19:33:25;24.00;68.90
80931;DHT22;70388;42.698;23.324;2023-06-22T19:35:59;23.90;69.00
80931;DHT22;70388;42.698;23.324;2023-06-22T19:38:26;23.90;69.10
80931;DHT22;70388;42.698;23.324;2023-06-22T19:40:52;24.00;68.40
80931;DHT22;70388;42.698;23.324;2023-06-22T19:43:19;24.00;69.40
80931;DHT22;70388;42.698;23.324;2023-06-22T19:45:45;23.80;71.80
80931;DHT22;70388;42.698;23.324;2023-06-22T19:51:33;23.30;77.40
80931;DHT22;70388;42.698;23.324;2023-06-22T19:54:06;23.10;82.10
80931;DHT22;70388;42.698;23.324;2023-06-22T19:56:32;22.90;87.00
80931;DHT22;70388;42.698;23.324;2023-06-22T19:59:09;22.70;96.90
80931;DHT22;70388;42.698;23.324;2023-06-22T20:01:36;22.70;99.90
80931;DHT22;70388;42.698;23.324;2023-06-22T20:04:02;22.50;99.90
80931;DHT22;70388;42.698;23.324;2023-06-22T20:06:28;22.40;99.90
80931;DHT22;70388;42.698;23.324;2023-06-22T20:08:55;22.40;99.90
80931;DHT22;70388;42.698;23.324;2023-06-22T20:11:28;22.50;99.90
80931;DHT22;70388;42.698;23.324;2023-06-22T20:13:59;22.70;99.90
80931;DHT22;70388;42.698;23.324;2023-06-22T20:16:26;23.00;99.90
80931;DHT22;70388;42.698;23.324;2023-06-22T20:19:09;23.10;99.90
80931;DHT22;70388;42.698;23.324;2023-06-22T20:21:37;23.30;99.90
80931;DHT22;70388;42.698;23.324;2023-06-22T20:24:06;23.20;99.90
80931;DHT22;70388;42.698;23.324;2023-06-22T20:26:42;23.00;99.90
80931;DHT22;70388;42.698;23.324;2023-06-22T20:29:31;22.90;99.90
80931;DHT22;70388;42.698;23.324;2023-06-22T20:32:13;22.80;99.90
80931;DHT22;70388;42.698;23.324;2023-06-22T20:34:41;22.70;99.90
80931;DHT22;70388;42.698;23.324;2023-06-22T20:37:10;22.60;99.90
80931;DHT22;70388;42.698;23.324;2023-06-22T20:39:36;22.50;99.90
80931;DHT22;70388;42.698;23.324;2023-06-22T20:42:02;22.50;99.90
80931;DHT22;70388;42.698;23.324;2023-06-22T20:44:31;22.50;99.90
80931;DHT22;70388;42.698;23.324;2023-06-22T20:46:57;22.60;99.90
80931;DHT22;70388;42.698;23.324;2023-06-22T20:49:23;22.60;99.90
80931;DHT22;70388;42.698;23.324;2023-06-22T20:51:52;22.60;99.90
80931;DHT22;70388;42.698;23.324;2023-06-22T20:54:18;22.50;99.90
80931;DHT22;70388;42.698;23.324;2023-06-22T20:56:44;22.50;99.90
80931;DHT22;70388;42.698;23.324;2023-06-22T20:59:11;22.50;99.90
80931;DHT22;70388;42.698;23.324;2023-06-22T21:01:37;22.70;99.90
80931;DHT22;70388;42.698;23.324;2023-06-22T21:04:03;22.70;99.90
80931;DHT22;70388;42.698;23.324;2023-06-22T21:06:28;22.70;99.90
80931;DHT22;70388;42.698;23.324;2023-06-22T21:08:54;22.60;99.90
80931;DHT22;70388;42.698;23.324;2023-06-22T21:11:20;22.70;99.90
80931;DHT22;70388;42.698;23.324;2023-06-22T21:13:46;22.50;99.90
80931;DHT22;70388;42.698;23.324;2023-06-22T21:16:12;22.50;99.90
80931;DHT22;70388;42.698;23.324;2023-06-22T21:18:38;22.40;99.90
80931;DHT22;70388;42.698;23.324;2023-06-22T21:21:04;22.30;99.90
80931;DHT22;70388;42.698;23.324;2023-06-22T21:23:29;22.30;99.90
80931;DHT22;70388;42.698;23.324;2023-06-22T21:25:55;22.40;99.90
80931;DHT22;70388;42.698;23.324;2023-06-22T21:28:21;22.50;99.90
80931;DHT22;70388;42.698;23.324;2023-06-22T21:30:46;22.40;99.90
80931;DHT22;70388;42.698;23.324;2023-06-22T21:33:12;22.60;99.90
80931;DHT22;70388;42.698;23.324;2023-06-22T21:35:38;22.70;99.90
80931;DHT22;70388;42.698;23.324;2023-06-22T21:38:03;22.70;99.90
80931;DHT22;70388;42.698;23.324;2023-06-22T21:40:29;22.80;99.90
80931;DHT22;70388;42.698;23.324;2023-06-22T21:42:55;22.80;99.90
80931;DHT22;70388;42.698;23.324;2023-06-22T21:45:25;22.80;99.90
80931;DHT22;70388;42.698;23.324;2023-06-22T21:47:51;22.80;99.90
80931;DHT22;70388;42.698;23.324;2023-06-22T21:50:16;22.70;99.90
80931;DHT22;70388;42.698;23.324;2023-06-22T21:52:42;22.70;99.90
80931;DHT22;70388;42.698;23.324;2023-06-22T21:55:08;22.60;99.90
80931;DHT22;70388;42.698;23.324;2023-06-22T21:57:34;22.60;99.90
80931;DHT22;70388;42.698;23.324;2023-06-22T21:59:59;22.60;99.90
80931;DHT22;70388;42.698;23.324;2023-06-22T22:02:25;22.60;99.90
80931;DHT22;70388;42.698;23.324;2023-06-22T22:04:51;22.50;99.90
80931;DHT22;70388;42.698;23.324;2023-06-22T22:07:18;22.40;99.90
80931;DHT22;70388;42.698;23.324;2023-06-22T22:09:44;22.40;99.90
80931;DHT22;70388;42.698;23.324;2023-06-22T22:12:09;22.50;99.90
80931;DHT22;70388;42.698;23.324;2023-06-22T22:14:35;22.50;99.90
80931;DHT22;70388;42.698;23.324;2023-06-22T22:17:01;22.40;99.90
80931;DHT22;70388;42.698;23.324;2023-06-22T22:19:26;22.40;99.90
80931;DHT22;70388;42.698;23.324;2023-06-22T22:21:52;22.30;99.90
80931;DHT22;70388;42.698;23.324;2023-06-22T22:24:18;22.30;99.90
80931;DHT22;70388;42.698;23.324;2023-06-22T22:26:43;22.30;99.90
80931;DHT22;70388;42.698;23.324;2023-06-22T22:29:10;22.30;99.90
80931;DHT22;70388;42.698;23.324;2023-06-22T22:31:36;22.20;99.90
80931;DHT22;70388;42.698;23.324;2023-06-22T22:34:08;22.20;99.90
80931;DHT22;70388;42.698;23.324;2023-06-22T22:36:37;22.20;99.90
80931;DHT22;70388;42.698;23.324;2023-06-22T22:39:07;22.10;99.90
80931;DHT22;70388;42.698;23.324;2023-06-22T22:41:34;22.00;99.90
80931;DHT22;70388;42.698;23.324;2023-06-22T22:43:59;21.90;99.90
80931;DHT22;70388;42.698;23.324;2023-06-22T22:46:25;21.90;99.90
80931;DHT22;70388;42.698;23.324;2023-06-22T22:48:51;21.90;99.90
80931;DHT22;70388;42.698;23.324;2023-06-22T22:51:17;22.00;99.90
80931;DHT22;70388;42.698;23.324;2023-06-22T22:53:43;21.90;99.90
80931;DHT22;70388;42.698;23.324;2023-06-22T22:56:09;21.90;99.90
80931;DHT22;70388;42.698;23.324;2023-06-22T22:58:36;21.90;99.90
80931;DHT22;70388;42.698;23.324;2023-06-22T23:01:04;21.90;99.90
80931;DHT22;70388;42.698;23.324;2023-06-22T23:03:30;21.90;99.90
80931;DHT22;70388;42.698;23.324;2023-06-22T23:05:56;21.80;99.90
80931;DHT22;70388;42.698;23.324;2023-06-22T23:08:23;21.80;99.90
80931;DHT22;70388;42.698;23.324;2023-06-22T23:10:48;21.60;99.90
80931;DHT22;70388;42.698;23.324;2023-06-22T23:13:15;21.50;99.90
80931;DHT22;70388;42.698;23.324;2023-06-22T23:15:41;21.60;99.90
80931;DHT22;70388;42.698;23.324;2023-06-22T23:18:06;21.60;99.90
80931;DHT22;70388;42.698;23.324;2023-06-22T23:20:34;21.60;99.90
80931;DHT22;70388;42.698;23.324;2023-06-22T23:23:00;21.60;99.90
80931;DHT22;70388;42.698;23.324;2023-06-22T23:25:29;21.50;99.90
80931;DHT22;70388;42.698;23.324;2023-06-22T23:27:55;21.40;99.90
80931;DHT22;70388;42.698;23.324;2023-06-22T23:30:22;21.30;99.90
80931;DHT22;70388;42.698;23.324;2023-06-22T23:32:48;21.20;99.90
80931;DHT22;70388;42.698;23.324;2023-06-22T23:35:14;21.20;99.90
80931;DHT22;70388;42.698;23.324;2023-06-22T23:37:40;21.30;99.90
80931;DHT22;70388;42.698;23.324;2023-06-22T23:40:09;21.20;99.90
80931;DHT22;70388;42.698;23.324;2023-06-22T23:42:43;21.00;99.90
80931;DHT22;70388;42.698;23.324;2023-06-22T23:45:15;21.00;99.90
80931;DHT22;70388;42.698;23.324;2023-06-22T23:47:44;21.00;99.90
80931;DHT22;70388;42.698;23.324;2023-06-22T23:50:10;20.90;99.90
80931;DHT22;70388;42.698;23.324;2023-06-22T23:52:36;20.90;99.90
80931;DHT22;70388;42.698;23.324;2023-06-22T23:55:02;20.90;99.90
80931;DHT22;70388;42.698;23.324;2023-06-22T23:57:28;20.90;99.90
80931;DHT22;70388;42.698;23.324;2023-06-22T23:59:54;20.80;99.90
